Time;durP1;ratioP1;P1;durP2;ratioP2;P2;SDS_P1;SDS_P2;PMS_P1;PMS_P2;Temp;Humidity;BMP_temperature;BMP_pressure;BME280_temperature;BME280_humidity;BME280_pressure;Samples;Min_cycle;Max_cycle;Signal;HPM_P1;HPM_P2
2022/06/10 00:00:47;;;;;;;3.70;2.43;;;14.40;97.10;;;;;;5063514;28;20439;-65
2022/06/10 00:03:16;;;;;;;5.67;2.80;;;14.40;97.10;;;;;;5063066;28;20451;-65
2022/06/10 00:05:47;;;;;;;4.17;2.50;;;14.40;97.20;;;;;;5063408;28;20450;-65
2022/06/10 00:08:18;;;;;;;3.50;2.27;;;14.30;97.20;;;;;;5059963;28;20435;-66
2022/06/10 00:10:49;;;;;;;4.03;2.30;;;14.30;97.40;;;;;;5058023;28;20435;-66
2022/06/10 00:13:16;;;;;;;8.43;3.67;;;14.20;97.60;;;;;;5053173;28;20438;-65
2022/06/10 00:15:44;;;;;;;6.63;2.47;;;14.30;97.70;;;;;;5053220;28;21064;-65
2022/06/10 00:18:12;;;;;;;6.17;2.83;;;14.20;97.80;;;;;;5052891;28;20455;-65
2022/06/10 00:20:40;;;;;;;5.60;2.70;;;14.20;97.90;;;;;;5053000;28;20512;-66
2022/06/10 00:23:08;;;;;;;3.27;2.50;;;14.20;98.00;;;;;;5053032;28;20513;-64
2022/06/10 00:25:37;;;;;;;5.10;2.60;;;14.20;98.10;;;;;;5078289;23;20484;-60
2022/06/10 00:28:06;;;;;;;7.50;2.67;;;14.10;98.10;;;;;;5057378;28;20483;-60
2022/06/10 00:30:33;;;;;;;4.13;2.53;;;14.10;98.30;;;;;;5057194;28;20869;-60
2022/06/10 00:33:01;;;;;;;5.27;2.60;;;14.10;98.30;;;;;;5056816;28;20898;-60
2022/06/10 00:35:30;;;;;;;3.30;2.57;;;14.10;98.40;;;;;;5056456;28;21013;-61
2022/06/10 00:37:58;;;;;;;4.60;3.30;;;14.00;98.50;;;;;;5056813;28;20479;-61
2022/06/10 00:40:28;;;;;;;4.53;2.90;;;14.00;98.70;;;;;;5056686;28;21016;-60
2022/06/10 00:42:57;;;;;;;8.77;3.27;;;13.90;98.70;;;;;;5056989;28;20529;-60
2022/06/10 00:45:57;;;;;;;3.00;2.70;;;13.90;98.90;;;;;;5056926;28;20825;-60
2022/06/10 00:48:31;;;;;;;5.90;3.17;;;13.90;99.00;;;;;;5057184;28;20453;-60
2022/06/10 00:51:03;;;;;;;4.13;2.90;;;13.80;99.10;;;;;;5057152;28;20470;-60
2022/06/10 00:53:34;;;;;;;5.40;3.63;;;13.80;99.30;;;;;;5056586;28;20963;-60
2022/06/10 00:56:05;;;;;;;4.07;2.97;;;13.80;99.40;;;;;;5056419;28;20585;-60
2022/06/10 00:58:40;;;;;;;4.80;2.60;;;13.80;99.40;;;;;;5056593;28;20485;-61
2022/06/10 01:01:08;;;;;;;6.10;2.90;;;13.80;99.60;;;;;;5056620;28;20618;-59
2022/06/10 01:03:36;;;;;;;7.73;3.03;;;13.80;99.60;;;;;;5056835;28;20505;-59
2022/06/10 01:06:03;;;;;;;10.23;3.23;;;13.80;99.60;;;;;;5056059;28;20448;-60
2022/06/10 01:08:31;;;;;;;3.87;2.93;;;13.70;99.70;;;;;;5055961;28;20537;-59
2022/06/10 01:11:17;;;;;;;5.60;3.07;;;13.70;99.80;;;;;;5055941;28;20544;-59
2022/06/10 01:13:57;;;;;;;4.43;3.00;;;13.70;99.80;;;;;;5056200;28;20524;-59
2022/06/10 01:16:32;;;;;;;5.77;3.53;;;13.60;99.90;;;;;;5055933;28;20980;-60
2022/06/10 01:19:11;;;;;;;3.30;2.63;;;13.60;99.90;;;;;;5055792;28;20976;-59
2022/06/10 01:22:03;;;;;;;6.20;3.60;;;13.60;99.90;;;;;;5055773;28;20470;-59
2022/06/10 01:24:57;;;;;;;6.00;3.67;;;13.50;99.90;;;;;;5055487;28;20475;-60
2022/06/10 01:27:54;;;;;;;3.03;2.73;;;13.50;99.90;;;;;;5056004;28;20483;-59
2022/06/10 01:30:47;;;;;;;3.87;3.23;;;13.40;99.90;;;;;;5055286;28;20442;-61
2022/06/10 01:33:21;;;;;;;4.67;2.33;;;13.40;99.90;;;;;;5055929;28;20511;-60
2022/06/10 01:35:58;;;;;;;3.30;2.90;;;13.40;99.90;;;;;;5056541;28;20857;-60
2022/06/10 01:38:32;;;;;;;6.53;3.10;;;13.40;99.90;;;;;;5055108;28;20904;-60
2022/06/10 01:41:09;;;;;;;5.83;3.03;;;13.40;99.90;;;;;;5056214;28;20502;-61
2022/06/10 01:43:42;;;;;;;5.10;2.87;;;13.30;99.90;;;;;;5055429;28;20478;-60
2022/06/10 01:46:15;;;;;;;3.60;2.83;;;13.30;99.90;;;;;;5055414;28;20489;-60
2022/06/10 01:48:50;;;;;;;3.60;2.50;;;13.30;99.90;;;;;;5055582;28;20436;-60
2022/06/10 01:51:24;;;;;;;5.00;2.67;;;13.30;99.90;;;;;;5055465;28;20434;-60
2022/06/10 01:53:57;;;;;;;3.83;2.60;;;13.30;99.90;;;;;;5055055;28;20972;-59
2022/06/10 01:56:30;;;;;;;8.90;2.87;;;13.30;99.90;;;;;;5055031;28;20574;-60
2022/06/10 01:59:04;;;;;;;6.10;2.60;;;13.40;99.90;;;;;;5055311;28;20457;-59
2022/06/10 02:01:39;;;;;;;6.97;4.10;;;13.40;99.90;;;;;;5055520;28;20491;-60
2022/06/10 02:04:10;;;;;;;5.23;2.63;;;13.40;99.90;;;;;;5054876;28;20879;-60
2022/06/10 02:06:45;;;;;;;5.07;3.03;;;13.40;99.90;;;;;;5055268;28;20435;-59
2022/06/10 02:09:16;;;;;;;3.63;3.13;;;13.30;99.90;;;;;;5055073;28;20923;-59
2022/06/10 02:11:49;;;;;;;4.57;2.83;;;13.30;99.90;;;;;;5054987;28;20425;-59
2022/06/10 02:14:20;;;;;;;4.33;3.43;;;13.20;99.90;;;;;;5054936;28;20561;-59
2022/06/10 02:16:52;;;;;;;3.97;2.90;;;13.20;99.90;;;;;;5054784;28;20519;-59
2022/06/10 02:19:24;;;;;;;6.00;3.70;;;13.20;99.90;;;;;;5054703;28;20974;-59
2022/06/10 02:21:54;;;;;;;4.00;3.20;;;13.20;99.90;;;;;;5054994;28;20536;-59
2022/06/10 02:24:26;;;;;;;4.80;3.53;;;13.20;99.90;;;;;;5054494;28;20512;-59
2022/06/10 02:26:59;;;;;;;7.67;4.00;;;13.10;99.90;;;;;;5054813;28;20517;-59
2022/06/10 02:29:33;;;;;;;5.20;3.30;;;13.10;99.90;;;;;;5054716;28;20519;-59
2022/06/10 02:32:02;;;;;;;7.03;3.60;;;13.00;99.90;;;;;;5054500;28;20512;-59
2022/06/10 02:34:30;;;;;;;4.07;3.23;;;13.00;99.90;;;;;;5054358;28;20463;-59
2022/06/10 02:37:05;;;;;;;4.17;3.77;;;12.90;99.90;;;;;;5054865;28;20447;-60
2022/06/10 02:39:42;;;;;;;5.17;3.70;;;12.80;99.90;;;;;;5054773;28;20569;-60
2022/06/10 02:42:14;;;;;;;5.10;3.53;;;12.80;99.90;;;;;;5054851;28;20490;-59
2022/06/10 02:44:51;;;;;;;3.33;3.03;;;12.70;99.90;;;;;;5054730;28;20504;-59
2022/06/10 02:47:28;;;;;;;5.97;3.53;;;12.70;99.90;;;;;;5055185;28;20439;-59
2022/06/10 02:49:56;;;;;;;5.70;3.70;;;12.70;99.90;;;;;;5053428;28;20946;-60
2022/06/10 02:52:28;;;;;;;7.97;3.70;;;12.70;99.90;;;;;;5054460;28;20476;-60
2022/06/10 02:54:55;;;;;;;3.80;3.30;;;12.60;99.90;;;;;;5054372;28;20563;-59
2022/06/10 03:01:11;;;;;;;5.90;3.67;;;12.60;99.90;;;;;;5054027;28;20487;-60
2022/06/10 03:03:10;;;;;;;4.33;3.93;;;12.60;99.90;;;;;;5053792;28;21024;-59
2022/06/10 03:05:48;;;;;;;6.47;3.33;;;12.60;99.90;;;;;;5053834;28;20461;-58
2022/06/10 03:08:26;;;;;;;5.10;3.90;;;12.60;99.90;;;;;;5054020;28;20902;-59
2022/06/10 03:11:04;;;;;;;4.07;3.63;;;12.60;99.90;;;;;;5053687;28;20433;-59
2022/06/10 03:13:45;;;;;;;6.40;3.73;;;12.60;99.90;;;;;;5053573;28;20427;-59
2022/06/10 03:16:28;;;;;;;4.00;3.57;;;12.70;99.90;;;;;;5053844;28;20473;-60
2022/06/10 03:19:05;;;;;;;8.00;4.20;;;12.70;99.90;;;;;;5053994;28;20498;-59
2022/06/10 03:21:55;;;;;;;7.47;3.57;;;12.60;99.90;;;;;;5053767;28;20432;-60
2022/06/10 03:24:30;;;;;;;4.03;3.57;;;12.60;99.90;;;;;;5053781;28;20517;-59
2022/06/10 03:27:16;;;;;;;4.67;3.77;;;12.60;99.90;;;;;;5054352;28;20528;-61
2022/06/10 03:29:50;;;;;;;4.10;3.30;;;12.60;99.90;;;;;;5054020;28;20456;-60
2022/06/10 03:32:26;;;;;;;6.73;3.80;;;12.60;99.90;;;;;;5053342;28;20936;-60
2022/06/10 03:35:01;;;;;;;3.57;3.27;;;12.60;99.90;;;;;;5053336;28;20982;-60
2022/06/10 03:37:29;;;;;;;3.43;3.10;;;12.60;99.90;;;;;;5053602;28;20522;-60
2022/06/10 03:39:58;;;;;;;5.50;3.20;;;12.70;99.90;;;;;;5053693;28;20449;-60
2022/06/10 03:42:27;;;;;;;6.40;3.50;;;12.70;99.90;;;;;;5053362;28;20445;-59
2022/06/10 03:44:56;;;;;;;4.57;3.60;;;12.80;99.90;;;;;;5053146;28;20471;-61
2022/06/10 03:47:27;;;;;;;4.80;3.70;;;12.80;99.90;;;;;;5053546;28;20445;-60
2022/06/10 03:49:59;;;;;;;6.50;4.20;;;12.90;99.90;;;;;;5052984;28;20442;-60
2022/06/10 03:52:29;;;;;;;8.63;4.30;;;13.00;99.90;;;;;;5053004;28;20430;-60
2022/06/10 03:54:56;;;;;;;5.13;3.63;;;13.30;99.90;;;;;;5053278;28;20654;-59
2022/06/10 03:57:23;;;;;;;4.73;3.83;;;13.90;99.90;;;;;;5053040;28;20522;-59
2022/06/10 03:59:51;;;;;;;14.73;4.27;;;14.50;99.90;;;;;;5053240;28;20440;-59
2022/06/10 04:02:18;;;;;;;5.70;3.53;;;15.10;99.90;;;;;;5053445;28;20562;-60
2022/06/10 04:04:46;;;;;;;6.03;3.17;;;15.70;99.90;;;;;;5053222;28;20491;-60
2022/06/10 04:09:53;;;;;;;3.77;2.83;;;16.70;99.90;;;;;;5091295;27;20557;-61
2022/06/10 04:12:21;;;;;;;4.00;3.13;;;17.20;99.90;;;;;;5090612;28;20449;-59
2022/06/10 04:14:49;;;;;;;10.67;3.80;;;17.50;99.90;;;;;;5090540;28;20970;-58
2022/06/10 04:17:16;;;;;;;9.30;3.40;;;17.80;99.50;;;;;;5090243;28;20809;-59
2022/06/10 04:19:43;;;;;;;5.23;3.20;;;18.10;98.60;;;;;;5090202;28;20444;-59
2022/06/10 04:22:11;;;;;;;8.73;3.93;;;18.50;97.70;;;;;;5090382;28;20490;-59
2022/06/10 04:24:38;;;;;;;4.87;2.83;;;18.80;96.40;;;;;;5090435;28;20547;-59
2022/06/10 04:27:07;;;;;;;5.30;3.10;;;19.10;95.20;;;;;;5090055;28;20559;-59
2022/06/10 04:29:35;;;;;;;6.43;3.57;;;19.20;94.40;;;;;;5090213;28;20586;-59
2022/06/10 04:32:02;;;;;;;3.23;2.93;;;19.40;93.60;;;;;;5090327;28;20443;-59
2022/06/10 04:34:29;;;;;;;6.17;2.73;;;19.70;92.60;;;;;;5090212;28;20466;-59
2022/06/10 04:36:57;;;;;;;5.10;3.70;;;19.80;91.60;;;;;;5090185;28;20494;-59
2022/06/10 04:39:24;;;;;;;5.17;3.63;;;19.90;90.90;;;;;;5084686;28;20510;-59
2022/06/10 04:41:51;;;;;;;5.43;2.80;;;20.00;90.10;;;;;;5073905;28;20444;-58
2022/06/10 04:44:20;;;;;;;8.70;3.50;;;20.20;89.00;;;;;;5072718;28;20604;-59
2022/06/10 04:46:47;;;;;;;5.87;3.90;;;20.40;87.40;;;;;;5078334;28;20516;-59
2022/06/10 04:49:15;;;;;;;5.40;3.80;;;20.50;85.70;;;;;;5077735;28;20982;-60
2022/06/10 04:51:42;;;;;;;5.23;3.47;;;20.60;84.60;;;;;;5090083;28;20496;-58
2022/06/10 04:54:11;;;;;;;6.40;5.53;;;20.90;83.10;;;;;;5080556;28;20982;-60
2022/06/10 04:56:38;;;;;;;8.37;4.20;;;21.10;81.30;;;;;;5075891;28;20958;-58
2022/06/10 04:59:05;;;;;;;9.23;6.57;;;21.30;79.60;;;;;;5075722;28;20964;-58
2022/06/10 05:01:34;;;;;;;6.73;4.30;;;21.50;78.00;;;;;;5079485;28;20523;-58
2022/06/10 05:04:02;;;;;;;9.67;7.43;;;21.60;76.60;;;;;;5078451;28;20874;-59
2022/06/10 05:06:29;;;;;;;9.57;7.63;;;21.70;75.60;;;;;;5073706;28;20514;-58
2022/06/10 05:08:57;;;;;;;6.97;5.60;;;21.70;74.50;;;;;;5071349;28;20572;-58
2022/06/10 05:11:24;;;;;;;7.97;4.60;;;21.70;73.90;;;;;;5080857;28;20462;-58
2022/06/10 05:13:52;;;;;;;8.80;4.67;;;21.80;73.10;;;;;;5089544;28;20529;-59
2022/06/10 05:16:19;;;;;;;5.57;4.97;;;21.80;72.40;;;;;;5076507;28;20502;-58
2022/06/10 05:18:48;;;;;;;6.87;4.20;;;21.80;71.90;;;;;;5069613;28;20937;-59
2022/06/10 05:21:15;;;;;;;8.90;5.40;;;21.90;71.50;;;;;;5067402;28;20456;-58
2022/06/10 05:23:45;;;;;;;5.00;4.10;;;22.00;70.40;;;;;;5056049;28;20478;-57
2022/06/10 05:26:12;;;;;;;7.47;4.23;;;22.00;69.10;;;;;;5069122;28;20521;-58
2022/06/10 05:28:40;;;;;;;10.03;4.57;;;22.00;68.80;;;;;;5064225;28;20505;-57
2022/06/10 05:31:08;;;;;;;8.90;4.90;;;21.90;68.40;;;;;;5066363;28;20549;-57
2022/06/10 05:36:19;;;;;;;7.23;5.10;;;22.00;67.60;;;;;;5055417;28;20519;-59
2022/06/10 05:38:47;;;;;;;7.33;5.13;;;22.10;66.90;;;;;;5058718;28;20458;-58
2022/06/10 05:43:59;;;;;;;5.00;4.60;;;21.90;66.70;;;;;;5058627;28;20953;-58
2022/06/10 05:46:27;;;;;;;6.23;5.67;;;21.80;67.00;;;;;;5065103;28;20459;-58
2022/06/10 05:48:54;;;;;;;7.27;5.70;;;21.80;67.30;;;;;;5074660;28;20475;-58
2022/06/10 05:51:22;;;;;;;8.13;5.10;;;21.80;67.10;;;;;;5063159;28;20467;-58
2022/06/10 05:53:50;;;;;;;8.10;5.17;;;21.90;67.00;;;;;;5054826;28;20542;-57
2022/06/10 05:56:17;;;;;;;7.25;5.38;;;21.90;67.00;;;;;;5054277;28;21008;-56
2022/06/10 05:58:44;;;;;;;7.83;5.07;;;21.90;66.80;;;;;;5071169;28;20232;-57
2022/06/10 06:01:12;;;;;;;6.30;5.70;;;21.80;67.10;;;;;;5075142;28;20526;-57
2022/06/10 06:03:39;;;;;;;5.40;4.90;;;21.70;67.40;;;;;;5075727;28;20447;-57
2022/06/10 06:06:08;;;;;;;6.43;5.50;;;21.50;68.20;;;;;;5074320;28;20447;-56
2022/06/10 06:08:37;;;;;;;6.60;5.60;;;21.40;69.00;;;;;;5074684;28;20494;-57
2022/06/10 06:11:04;;;;;;;8.70;5.53;;;21.30;69.20;;;;;;5074723;28;20451;-56
2022/06/10 06:13:32;;;;;;;6.97;5.43;;;21.30;69.50;;;;;;5073528;28;21000;-58
2022/06/10 06:15:59;;;;;;;7.17;4.93;;;21.30;69.80;;;;;;5070287;28;20484;-56
2022/06/10 06:18:26;;;;;;;8.87;5.63;;;21.10;70.10;;;;;;5054848;28;20865;-57
2022/06/10 06:20:54;;;;;;;9.13;6.00;;;21.00;70.90;;;;;;5054278;28;20848;-57
2022/06/10 06:23:21;;;;;;;7.10;6.07;;;21.10;71.30;;;;;;5070893;28;20864;-57
2022/06/10 06:25:50;;;;;;;5.83;5.23;;;21.10;71.20;;;;;;5102426;22;20486;-64
2022/06/10 06:28:17;;;;;;;9.03;5.93;;;21.20;70.90;;;;;;5034637;28;20543;-60
2022/06/10 06:30:44;;;;;;;7.13;6.07;;;21.10;70.70;;;;;;5035711;28;20445;-61
2022/06/10 06:33:12;;;;;;;6.33;5.73;;;20.90;71.10;;;;;;5036237;28;20511;-63
2022/06/10 06:35:40;;;;;;;8.03;6.30;;;20.90;71.40;;;;;;5027134;28;20561;-61
2022/06/10 06:38:08;;;;;;;8.20;6.13;;;20.80;70.90;;;;;;5014254;28;20489;-62
2022/06/10 06:40:35;;;;;;;9.90;5.70;;;20.80;70.50;;;;;;5014239;28;20511;-63
2022/06/10 06:43:04;;;;;;;7.03;5.40;;;20.80;70.40;;;;;;5027634;28;20845;-64
2022/06/10 06:45:32;;;;;;;7.37;5.07;;;20.70;70.00;;;;;;5033645;28;20823;-63
2022/06/10 06:47:59;;;;;;;12.60;6.40;;;20.60;69.90;;;;;;5032983;28;20456;-63
2022/06/10 06:50:29;;;;;;;6.20;5.60;;;20.40;69.80;;;;;;5033682;28;20532;-64
2022/06/10 06:52:56;;;;;;;12.33;5.73;;;20.30;70.70;;;;;;5033871;28;20963;-62
2022/06/10 06:55:24;;;;;;;7.70;5.23;;;20.40;71.00;;;;;;5033066;28;20525;-63
2022/06/10 06:57:51;;;;;;;10.20;6.23;;;20.40;70.50;;;;;;5033817;28;20466;-64
2022/06/10 07:00:20;;;;;;;8.27;6.67;;;20.50;70.20;;;;;;5033030;28;20443;-64
2022/06/10 07:02:48;;;;;;;5.80;5.17;;;20.60;69.60;;;;;;5033337;28;20496;-63
2022/06/10 07:05:15;;;;;;;9.30;5.80;;;20.70;68.90;;;;;;5033808;28;20456;-62
2022/06/10 07:07:43;;;;;;;6.83;5.50;;;20.80;69.20;;;;;;5033412;28;20472;-63
2022/06/10 07:10:14;;;;;;;9.07;6.00;;;20.90;68.10;;;;;;5032452;28;20481;-63
2022/06/10 07:12:41;;;;;;;8.30;5.80;;;21.00;67.70;;;;;;5033689;28;20460;-62
2022/06/10 07:15:09;;;;;;;6.80;6.10;;;20.90;67.90;;;;;;5033046;28;20453;-60
2022/06/10 07:17:39;;;;;;;8.70;4.50;;;20.90;68.40;;;;;;5032442;28;20479;-60
2022/06/10 07:20:08;;;;;;;10.90;5.57;;;20.80;68.90;;;;;;5033766;28;20490;-64
2022/06/10 07:22:36;;;;;;;5.53;5.00;;;20.90;68.90;;;;;;5034167;28;20453;-62
2022/06/10 07:25:04;;;;;;;14.60;7.40;;;20.90;68.60;;;;;;5032828;28;20457;-62
2022/06/10 07:27:31;;;;;;;11.73;5.70;;;21.10;68.40;;;;;;5033365;28;20477;-62
2022/06/10 07:29:59;;;;;;;11.97;5.80;;;21.10;67.90;;;;;;5033667;28;20523;-62
2022/06/10 07:32:26;;;;;;;5.70;4.73;;;21.20;67.70;;;;;;5032496;28;20495;-63
2022/06/10 07:34:55;;;;;;;7.77;5.57;;;21.30;67.40;;;;;;5033364;28;20804;-63
2022/06/10 07:37:22;;;;;;;5.73;4.90;;;21.20;67.60;;;;;;5033129;28;20841;-61
2022/06/10 07:39:49;;;;;;;6.63;4.43;;;21.20;67.70;;;;;;5032598;28;20450;-62
2022/06/10 07:42:16;;;;;;;11.10;5.50;;;21.30;67.20;;;;;;5033159;28;20449;-65
2022/06/10 07:44:43;;;;;;;5.90;4.53;;;21.40;66.80;;;;;;5033024;28;20442;-63
2022/06/10 07:47:14;;;;;;;7.27;4.60;;;21.40;66.60;;;;;;5032347;28;20510;-62
2022/06/10 07:49:41;;;;;;;5.13;4.57;;;21.60;66.40;;;;;;5033456;28;20529;-63
2022/06/10 07:52:10;;;;;;;5.90;3.73;;;21.70;65.80;;;;;;5033401;28;20452;-61
2022/06/10 07:54:38;;;;;;;4.17;3.30;;;21.70;64.80;;;;;;5033395;28;21013;-63
2022/06/10 07:57:08;;;;;;;5.93;2.73;;;21.70;64.00;;;;;;5032284;28;20504;-62
2022/06/10 07:59:35;;;;;;;5.23;2.80;;;21.80;63.20;;;;;;5033339;28;20501;-64
2022/06/10 08:02:03;;;;;;;5.73;3.17;;;22.00;62.00;;;;;;5033102;28;20512;-63
2022/06/10 08:04:31;;;;;;;5.17;2.83;;;22.10;60.50;;;;;;5033279;28;20460;-65
2022/06/10 08:06:58;;;;;;;6.80;3.03;;;22.10;59.30;;;;;;5033098;28;20475;-63
2022/06/10 08:09:27;;;;;;;6.77;3.20;;;22.20;58.40;;;;;;5031991;28;20561;-64
2022/06/10 08:11:54;;;;;;;8.37;3.30;;;22.30;57.40;;;;;;5032184;28;20467;-61
2022/06/10 08:14:22;;;;;;;4.63;3.07;;;22.30;57.10;;;;;;5033803;28;20501;-62
2022/06/10 08:16:49;;;;;;;3.90;3.30;;;22.40;56.60;;;;;;5033599;28;20474;-62
2022/06/10 08:19:16;;;;;;;5.73;2.70;;;22.40;56.50;;;;;;5032905;28;20451;-63
2022/06/10 08:24:30;;;;;;;8.07;3.63;;;22.50;56.20;;;;;;5031744;28;20506;-63
2022/06/10 08:26:57;;;;;;;6.20;3.17;;;22.60;55.80;;;;;;5032567;28;20526;-63
2022/06/10 08:29:26;;;;;;;7.97;4.33;;;22.60;54.70;;;;;;5032711;28;20980;-62
2022/06/10 08:31:53;;;;;;;4.80;3.70;;;22.50;54.50;;;;;;5032444;28;20543;-62
2022/06/10 08:34:21;;;;;;;8.37;3.30;;;22.70;53.90;;;;;;5031782;28;20448;-63
2022/06/10 08:36:48;;;;;;;9.00;5.37;;;22.80;53.40;;;;;;5032823;28;20816;-64
2022/06/10 08:39:15;;;;;;;6.07;3.67;;;23.10;53.30;;;;;;5032209;28;20925;-64
2022/06/10 08:41:56;;;;;;;6.10;3.80;;;23.30;53.00;;;;;;5033066;28;20437;-62
2022/06/10 08:44:31;;;;;;;5.83;3.60;;;23.50;53.20;;;;;;5033462;28;20527;-64
2022/06/10 08:47:25;;;;;;;7.60;3.57;;;23.60;52.40;;;;;;5033708;28;20464;-63
2022/06/10 08:50:16;;;;;;;7.93;3.73;;;23.90;52.10;;;;;;5030981;28;20477;-64
2022/06/10 08:52:53;;;;;;;7.33;3.27;;;24.20;51.70;;;;;;5032779;28;20492;-63
2022/06/10 08:55:34;;;;;;;8.80;4.30;;;24.50;50.90;;;;;;5034139;28;20429;-63
2022/06/10 08:58:11;;;;;;;4.90;3.20;;;24.70;50.30;;;;;;5036085;28;20441;-64
2022/06/10 09:00:40;;;;;;;6.30;3.60;;;25.00;50.00;;;;;;5036694;28;20425;-63
2022/06/10 09:03:14;;;;;;;13.23;3.97;;;25.20;49.30;;;;;;5036810;28;20475;-61
2022/06/10 09:05:46;;;;;;;8.30;3.50;;;25.20;48.90;;;;;;5035362;28;20502;-64
2022/06/10 09:08:16;;;;;;;6.57;3.60;;;25.10;49.00;;;;;;5038886;28;20429;-63
2022/06/10 09:10:49;;;;;;;5.70;4.47;;;25.20;49.00;;;;;;5037520;28;20487;-63
2022/06/10 09:13:31;;;;;;;6.60;3.57;;;25.40;48.40;;;;;;5035610;28;20933;-62
2022/06/10 09:16:06;;;;;;;14.00;3.70;;;25.50;47.70;;;;;;5035760;28;20467;-63
2022/06/10 09:18:40;;;;;;;4.43;3.03;;;25.50;47.40;;;;;;5035487;28;20467;-63
2022/06/10 09:21:17;;;;;;;5.83;2.90;;;25.50;46.80;;;;;;5035935;28;20468;-62
2022/06/10 09:23:47;;;;;;;7.47;3.27;;;25.40;46.70;;;;;;5047530;28;20432;-63
2022/06/10 09:26:20;;;;;;;5.73;3.67;;;25.40;46.70;;;;;;5046205;28;20484;-64
2022/06/10 09:28:49;;;;;;;5.53;3.13;;;25.50;46.50;;;;;;5043803;28;20525;-62
2022/06/10 09:31:28;;;;;;;4.83;3.73;;;25.50;46.50;;;;;;5037523;28;20492;-62
2022/06/10 09:34:05;;;;;;;11.43;3.13;;;25.30;46.50;;;;;;5038633;28;20456;-63
2022/06/10 09:36:43;;;;;;;4.53;2.70;;;25.10;46.80;;;;;;5036528;28;20511;-66
2022/06/10 09:42:16;;;;;;;6.70;3.37;;;25.40;47.00;;;;;;5037418;28;20497;-63
2022/06/10 09:44:52;;;;;;;5.60;3.10;;;25.70;46.10;;;;;;5035841;28;20456;-63
2022/06/10 09:47:29;;;;;;;4.83;3.30;;;25.90;45.80;;;;;;5036871;28;20995;-63
2022/06/10 09:50:09;;;;;;;8.33;3.00;;;25.70;45.30;;;;;;5035102;28;20484;-64
2022/06/10 09:52:45;;;;;;;6.43;5.00;;;25.60;45.60;;;;;;5037616;28;20579;-64
2022/06/10 09:55:28;;;;;;;6.70;2.50;;;25.80;45.80;;;;;;5037170;28;20425;-64
2022/06/10 09:58:22;;;;;;;7.53;2.40;;;26.30;45.20;;;;;;5034655;28;20449;-62
2022/06/10 10:00:56;;;;;;;6.20;2.80;;;26.70;44.10;;;;;;5035341;28;20893;-63
2022/06/10 10:03:56;;;;;;;6.60;2.53;;;26.70;43.20;;;;;;5035148;28;20433;-62
2022/06/10 10:06:34;;;;;;;6.17;2.83;;;26.50;43.40;;;;;;5034240;28;20508;-63
2022/06/10 10:09:13;;;;;;;5.57;3.27;;;26.50;43.50;;;;;;5035074;28;20429;-63
2022/06/10 10:11:45;;;;;;;7.13;2.80;;;26.70;43.10;;;;;;5035041;28;20480;-63
2022/06/10 10:14:22;;;;;;;4.67;2.93;;;26.90;42.80;;;;;;5034373;28;20523;-62
2022/06/10 10:17:00;;;;;;;6.30;2.50;;;26.90;42.50;;;;;;5034477;28;20465;-63
2022/06/10 10:19:47;;;;;;;3.37;2.20;;;26.60;42.30;;;;;;5035443;28;20429;-63
2022/06/10 10:22:45;;;;;;;3.63;1.87;;;26.10;42.40;;;;;;5033779;28;20443;-62
2022/06/10 10:25:16;;;;;;;5.80;2.80;;;25.60;42.80;;;;;;5024312;28;20456;-62
2022/06/10 10:27:46;;;;;;;3.27;2.17;;;25.30;43.10;;;;;;5034265;28;20503;-61
2022/06/10 10:30:20;;;;;;;6.83;3.13;;;25.00;43.20;;;;;;5032250;28;20488;-61
2022/06/10 10:32:54;;;;;;;3.60;2.57;;;24.80;43.60;;;;;;5034137;28;20425;-62
2022/06/10 10:35:24;;;;;;;3.43;2.23;;;24.90;43.80;;;;;;5033997;28;20425;-62
2022/06/10 10:37:56;;;;;;;6.03;2.50;;;25.10;43.70;;;;;;5031203;28;20480;-61
2022/06/10 10:40:44;;;;;;;4.93;2.07;;;25.10;43.60;;;;;;5049765;28;20490;-64
2022/06/10 10:43:16;;;;;;;5.63;2.60;;;25.00;43.70;;;;;;5041923;28;20921;-62
2022/06/10 10:45:58;;;;;;;4.60;2.00;;;24.80;44.00;;;;;;5033433;28;20432;-63
2022/06/10 10:48:30;;;;;;;6.93;2.80;;;24.70;44.50;;;;;;5033520;28;20433;-63
2022/06/10 10:51:02;;;;;;;3.90;2.20;;;24.50;44.70;;;;;;5032807;28;20484;-62
2022/06/10 10:53:37;;;;;;;3.70;2.30;;;24.40;45.00;;;;;;5025090;28;20462;-64
2022/06/10 10:56:08;;;;;;;3.77;2.13;;;24.40;45.20;;;;;;5013689;28;20477;-62
2022/06/10 10:58:38;;;;;;;4.13;2.33;;;24.40;45.30;;;;;;5016563;28;20461;-64
2022/06/10 11:01:08;;;;;;;3.80;1.80;;;24.40;45.30;;;;;;5033302;28;20445;-62
2022/06/10 11:03:46;;;;;;;6.20;2.57;;;24.50;45.20;;;;;;5032992;28;20444;-63
2022/06/10 11:06:25;;;;;;;7.00;2.50;;;24.50;45.20;;;;;;5033798;28;20465;-63
2022/06/10 11:08:58;;;;;;;7.53;2.60;;;24.50;45.30;;;;;;5032062;28;20943;-62
2022/06/10 11:11:31;;;;;;;4.37;2.10;;;24.50;46.10;;;;;;5033278;28;20471;-64
2022/06/10 11:14:01;;;;;;;8.13;2.80;;;24.50;45.90;;;;;;5033719;28;20437;-64
2022/06/10 11:16:38;;;;;;;4.93;2.30;;;24.40;46.10;;;;;;5032157;28;20477;-61
2022/06/10 11:19:40;;;;;;;7.90;2.60;;;24.20;46.40;;;;;;5033285;28;20443;-61
2022/06/10 11:22:29;;;;;;;7.67;2.83;;;24.00;46.70;;;;;;5030250;28;20888;-64
2022/06/10 11:25:22;;;;;;;5.17;2.40;;;23.80;47.10;;;;;;5032507;28;20440;-61
2022/06/10 11:28:03;;;;;;;6.30;2.73;;;23.80;47.20;;;;;;5033019;28;20531;-62
2022/06/10 11:30:37;;;;;;;5.93;2.47;;;24.00;47.40;;;;;;5033246;28;20465;-63
2022/06/10 11:33:07;;;;;;;5.70;2.50;;;24.40;47.10;;;;;;5032195;28;20443;-63
2022/06/10 11:35:38;;;;;;;6.00;2.33;;;24.90;46.50;;;;;;5032140;28;20907;-63
2022/06/10 11:38:16;;;;;;;5.40;2.37;;;25.30;45.60;;;;;;5032993;28;20433;-62
2022/06/10 11:40:52;;;;;;;3.40;2.13;;;25.30;45.40;;;;;;5032760;28;20433;-61
2022/06/10 11:43:25;;;;;;;5.67;2.13;;;25.50;45.40;;;;;;5032438;28;20486;-62
2022/06/10 11:45:58;;;;;;;6.43;2.50;;;25.70;44.90;;;;;;5032719;28;20461;-62
2022/06/10 11:48:35;;;;;;;6.83;2.70;;;25.70;44.60;;;;;;5033184;28;20499;-61
2022/06/10 11:51:11;;;;;;;8.13;2.63;;;25.80;44.80;;;;;;5033001;28;20491;-63
2022/06/10 11:53:48;;;;;;;5.67;2.13;;;25.90;44.50;;;;;;5032331;28;20447;-62
2022/06/10 12:01:57;;;;;;;3.23;1.90;;;26.50;43.10;;;;;;5033040;28;20464;-63
2022/06/10 12:04:30;;;;;;;7.53;2.23;;;26.70;42.40;;;;;;5032173;28;20941;-63
2022/06/10 12:07:03;;;;;;;3.67;1.67;;;27.10;41.80;;;;;;5032902;28;20465;-62
2022/06/10 12:09:36;;;;;;;3.70;1.70;;;27.70;41.10;;;;;;5033180;28;20437;-63
2022/06/10 12:12:10;;;;;;;8.47;1.97;;;27.80;40.40;;;;;;5032819;28;20531;-63
2022/06/10 12:14:42;;;;;;;4.40;2.10;;;27.20;40.80;;;;;;5031042;28;20523;-63
2022/06/10 12:17:17;;;;;;;7.10;2.20;;;26.70;41.20;;;;;;5032834;28;20468;-63
2022/06/10 12:19:49;;;;;;;3.70;1.77;;;26.50;41.60;;;;;;5033466;28;20429;-64
2022/06/10 12:22:18;;;;;;;4.70;2.10;;;26.70;41.40;;;;;;5033396;28;20796;-65
2022/06/10 12:24:49;;;;;;;3.10;1.83;;;27.00;41.10;;;;;;5032961;28;20482;-64
2022/06/10 12:27:23;;;;;;;4.30;1.70;;;27.10;40.80;;;;;;5055923;22;20539;-59
2022/06/10 12:30:02;;;;;;;3.30;1.93;;;26.70;40.80;;;;;;5033743;28;20430;-59
2022/06/10 12:32:36;;;;;;;2.47;1.80;;;26.50;41.00;;;;;;5036392;28;20838;-59
2022/06/10 12:35:11;;;;;;;3.50;1.90;;;26.60;41.30;;;;;;5036716;28;20425;-59
2022/06/10 12:37:46;;;;;;;3.53;1.90;;;26.80;40.80;;;;;;5036393;28;20550;-58
2022/06/10 12:40:21;;;;;;;3.03;1.47;;;27.10;40.50;;;;;;5036436;28;20436;-58
2022/06/10 12:42:51;;;;;;;1.83;1.27;;;27.20;40.00;;;;;;5035940;28;20881;-57
2022/06/10 12:45:24;;;;;;;3.67;1.30;;;27.10;40.00;;;;;;5036247;28;20445;-59
2022/06/10 12:47:56;;;;;;;2.30;1.30;;;26.80;40.20;;;;;;5036349;28;20468;-59
2022/06/10 12:50:28;;;;;;;2.50;1.20;;;26.40;41.20;;;;;;5036192;28;20460;-58
2022/06/10 12:53:26;;;;;;;3.80;1.10;;;25.90;41.10;;;;;;5037070;28;20475;-58
2022/06/10 12:55:56;;;;;;;7.33;1.47;;;25.70;41.80;;;;;;5036247;28;20425;-57
2022/06/10 12:58:45;;;;;;;2.70;1.17;;;25.60;41.90;;;;;;5036389;28;20503;-58
2022/06/10 13:01:16;;;;;;;2.70;1.40;;;25.50;42.50;;;;;;5035653;28;20473;-58
2022/06/10 13:03:44;;;;;;;3.37;1.23;;;25.40;42.90;;;;;;5036157;28;20491;-60
2022/06/10 13:06:30;;;;;;;2.90;1.17;;;25.50;43.00;;;;;;5035535;28;20441;-59
2022/06/10 13:09:21;;;;;;;2.37;1.30;;;25.80;42.90;;;;;;5035923;28;20468;-59
2022/06/10 13:11:50;;;;;;;3.20;1.50;;;26.30;42.30;;;;;;5036079;28;20464;-59
2022/06/10 13:14:40;;;;;;;2.13;1.00;;;26.60;41.50;;;;;;5035631;28;20486;-61
2022/06/10 13:17:23;;;;;;;2.73;1.20;;;26.80;41.00;;;;;;5033875;28;20515;-59
2022/06/10 13:20:22;;;;;;;2.50;1.00;;;26.70;40.90;;;;;;5036183;28;20488;-60
2022/06/10 13:23:11;;;;;;;4.13;1.17;;;26.50;41.20;;;;;;5035827;28;20888;-59
2022/06/10 13:25:42;;;;;;;2.83;1.37;;;26.30;41.30;;;;;;5030167;28;20453;-60
2022/06/10 13:28:23;;;;;;;1.90;1.30;;;26.00;41.80;;;;;;5035150;28;20472;-58
2022/06/10 13:30:52;;;;;;;2.90;1.50;;;25.90;42.20;;;;;;5035347;28;20469;-60
2022/06/10 13:33:20;;;;;;;3.77;1.40;;;25.70;42.80;;;;;;5035551;28;20502;-60
2022/06/10 13:35:55;;;;;;;2.77;1.30;;;25.40;43.70;;;;;;5035234;28;20593;-60